Dafter, Michigan
Current Conditions -  °F | °C
As of 9:35 AM on Friday 24 Oct 2014 (Local Time) from KCIU Reporting Station
Overcast Overcast  
Wind Chill: 44°   Ceiling: 800
Heat Index: 46°   Visibility: 2.5mi
Dew Point: 45°   Wind: 5mph
Humidity: 93%   Direction: 170°S
Pressure: 30"   Gusts: NA
Location:  46.36°N, 84.43°W
Report Text: KCIU 241335Z AUTO 17004KT 2 1/2SM BKN008 OVC013 08/07 A3000 RMK AO1 VIS 1 3/4V3
Loading
Personal Weather Stations






























Interactive Weather Map
Tropical Storm Tracking
New forecast layout! Learn more

10-Day Weather Forecast

Advertisements
Track Severe Weather on mobile